Time;durP1;ratioP1;P1;durP2;ratioP2;P2;SDS_P1;SDS_P2;PMS_P1;PMS_P2;Temp;Humidity;BMP_temperature;BMP_pressure;BME280_temperature;BME280_humidity;BME280_pressure;Samples;Min_cycle;Max_cycle;Signal;HPM_P1;HPM_P2
2021/06/10 21:03:14;;;;;;;7.88;4.85;;;512.80;2380.80;;;;;;5067461;28;20253;-80
2021/06/10 21:05:40;;;;;;;6.63;4.20;;;512.80;2380.80;;;;;;5073301;28;20424;-79
2021/06/10 21:08:06;;;;;;;5.60;4.53;;;512.90;2380.80;;;;;;5090643;28;20092;-80
2021/06/10 21:10:32;;;;;;;9.65;4.40;;;512.90;2380.80;;;;;;5090962;28;20016;-80
2021/06/10 21:12:58;;;;;;;9.10;4.57;;;512.90;2380.80;;;;;;5091185;28;20024;-80
2021/06/10 21:15:25;;;;;;;6.70;4.45;;;512.90;2380.80;;;;;;5072786;28;20016;-80
2021/06/10 21:17:51;;;;;;;6.20;3.92;;;512.90;2380.80;;;;;;5072870;28;20027;-78
2021/06/10 21:20:17;;;;;;;7.88;3.67;;;537.60;2406.40;;;;;;5072847;28;20016;-80
2021/06/10 21:22:43;;;;;;;4.95;3.85;;;537.60;2406.40;;;;;;5072413;28;20024;-78
2021/06/10 21:25:09;;;;;;;6.30;4.15;;;537.60;2406.40;;;;;;5072673;28;20044;-81
2021/06/10 21:27:35;;;;;;;5.00;3.78;;;537.60;2406.40;;;;;;5073045;28;20178;-82
2021/06/10 21:30:02;;;;;;;9.57;4.25;;;537.60;2406.40;;;;;;5072383;28;20456;-80
2021/06/10 21:32:28;;;;;;;7.78;4.07;;;537.60;2406.40;;;;;;5072574;28;20119;-80
2021/06/10 21:34:54;;;;;;;6.55;4.75;;;537.60;2406.40;;;;;;5072253;28;20101;-80
2021/06/10 21:37:19;;;;;;;6.68;4.13;;;537.60;2406.40;;;;;;5072386;28;20020;-80
2021/06/10 21:39:45;;;;;;;6.03;3.97;;;537.60;2406.40;;;;;;5072427;28;20467;-80
2021/06/10 21:42:11;;;;;;;5.65;3.75;;;537.60;2406.40;;;;;;5072014;28;20089;-81
2021/06/10 21:44:39;;;;;;;6.22;3.75;;;537.60;2406.40;;;;;;5090548;28;20020;-80
2021/06/10 21:47:05;;;;;;;4.70;3.58;;;512.90;2380.80;;;;;;5072379;28;20047;-81
2021/06/10 21:49:31;;;;;;;6.50;3.90;;;537.60;2406.40;;;;;;5072078;28;20048;-79
2021/06/10 21:51:57;;;;;;;5.57;3.60;;;537.60;2406.40;;;;;;5072244;28;20427;-80
2021/06/10 21:54:23;;;;;;;4.93;3.63;;;537.60;2406.40;;;;;;5072258;28;20405;-79
2021/06/10 21:56:49;;;;;;;6.10;3.38;;;537.60;2406.40;;;;;;5071864;28;20070;-80
2021/06/10 21:59:15;;;;;;;5.93;3.75;;;537.60;2406.40;;;;;;5072198;28;20366;-80
2021/06/10 22:01:42;;;;;;;5.38;3.80;;;537.60;2406.40;;;;;;5071711;28;20131;-79
2021/06/10 22:04:07;;;;;;;7.60;4.28;;;512.90;2380.80;;;;;;5052848;28;20056;-80
2021/06/10 22:06:33;;;;;;;5.75;3.90;;;512.90;2380.80;;;;;;5051960;28;20060;-79
2021/06/10 22:08:59;;;;;;;4.55;3.42;;;512.90;2380.80;;;;;;5051634;28;20028;-79
2021/06/10 22:11:25;;;;;;;3.95;3.15;;;512.80;2380.80;;;;;;5051573;28;20029;-81
2021/06/10 22:13:52;;;;;;;5.00;3.50;;;512.80;2380.80;;;;;;5042647;28;20025;-80
2021/06/10 22:16:19;;;;;;;6.85;5.13;;;512.70;2380.80;;;;;;5038671;28;20074;-80
2021/06/10 22:18:45;;;;;;;6.35;3.78;;;512.50;2380.80;;;;;;5038200;28;20383;-80
2021/06/10 22:21:11;;;;;;;5.78;3.70;;;512.60;2380.80;;;;;;5038363;28;20032;-79
2021/06/10 22:23:37;;;;;;;7.45;4.15;;;512.60;2380.80;;;;;;5038432;28;20025;-80
2021/06/10 22:26:03;;;;;;;5.70;3.70;;;512.60;2380.80;;;;;;5038036;28;20485;-78
2021/06/10 22:28:30;;;;;;;5.43;3.80;;;512.60;2380.80;;;;;;5056288;28;20052;-79
2021/06/10 22:30:58;;;;;;;5.88;3.55;;;512.50;2380.80;;;;;;5038310;28;20024;-84
2021/06/10 22:33:25;;;;;;;7.88;3.72;;;512.50;2380.80;;;;;;5038808;28;20021;-84
2021/06/10 22:35:53;;;;;;;6.43;3.58;;;512.40;2380.80;;;;;;5038504;28;20020;-83
2021/06/10 22:38:20;;;;;;;7.65;3.55;;;512.40;2380.80;;;;;;5038055;28;20025;-81
2021/06/10 22:40:49;;;;;;;6.25;3.80;;;512.20;2380.80;;;;;;5038102;28;20021;-82
2021/06/10 22:43:16;;;;;;;6.32;3.60;;;512.30;2380.80;;;;;;5038460;28;20537;-81
2021/06/10 22:45:43;;;;;;;5.20;3.72;;;512.30;2380.80;;;;;;5038315;28;20086;-83
2021/06/10 22:48:09;;;;;;;6.80;3.70;;;512.40;2380.80;;;;;;5038320;28;20017;-82
2021/06/10 22:50:40;;;;;;;8.32;3.90;;;512.20;2380.80;;;;;;5038611;28;20060;-83
2021/06/10 22:53:07;;;;;;;6.30;4.28;;;512.30;2380.80;;;;;;5038182;28;20017;-81
2021/06/10 22:55:34;;;;;;;9.35;4.07;;;512.40;2380.80;;;;;;5038206;28;20021;-84
2021/06/10 22:58:01;;;;;;;6.53;4.88;;;512.40;2380.80;;;;;;5038310;28;20464;-83
2021/06/10 23:00:28;;;;;;;5.85;3.97;;;512.20;2380.80;;;;;;5038076;28;20028;-82
2021/06/10 23:02:55;;;;;;;7.43;4.18;;;512.20;2380.80;;;;;;5034765;28;20477;-83
2021/06/10 23:05:21;;;;;;;8.93;4.45;;;512.20;2380.80;;;;;;5034742;28;20025;-81
2021/06/10 23:07:47;;;;;;;6.32;3.80;;;512.70;2380.80;;;;;;5034839;28;20028;-82
2021/06/10 23:10:14;;;;;;;6.72;4.47;;;512.10;2380.80;;;;;;5034859;28;20017;-81
2021/06/10 23:12:40;;;;;;;5.82;4.20;;;512.00;2380.80;;;;;;5034740;28;20477;-83
2021/06/10 23:15:12;;;;;;;5.75;4.00;;;512.00;2380.80;;;;;;5034527;28;20029;-82
2021/06/10 23:17:43;;;;;;;7.30;4.30;;;512.10;2380.80;;;;;;5034816;28;20018;-83
2021/06/10 23:20:10;;;;;;;6.55;3.95;;;512.20;2380.80;;;;;;5034333;28;20028;-83
2021/06/10 23:22:36;;;;;;;5.35;3.97;;;512.30;2380.80;;;;;;5034492;28;20032;-82
2021/06/10 23:25:03;;;;;;;8.55;5.13;;;512.40;2380.80;;;;;;5033554;28;20124;-83
2021/06/10 23:27:29;;;;;;;5.32;4.38;;;512.50;2380.80;;;;;;5034238;28;20445;-83
2021/06/10 23:29:55;;;;;;;6.07;4.47;;;512.50;2380.80;;;;;;5034313;28;20075;-83
2021/06/10 23:32:21;;;;;;;6.82;3.63;;;512.50;2380.80;;;;;;5034318;28;20022;-83
2021/06/10 23:34:47;;;;;;;5.10;3.97;;;512.50;2380.80;;;;;;5034130;28;20025;-82
2021/06/10 23:37:13;;;;;;;7.45;4.35;;;512.40;2380.80;;;;;;5034278;28;20408;-82
2021/06/10 23:39:39;;;;;;;5.25;4.35;;;512.40;2380.80;;;;;;5034344;28;20419;-83
2021/06/10 23:42:05;;;;;;;6.13;4.50;;;537.60;2406.40;;;;;;5034152;28;20380;-82
2021/06/10 23:44:32;;;;;;;6.50;4.53;;;512.40;2380.80;;;;;;5034186;28;20032;-82
2021/06/10 23:46:58;;;;;;;7.47;4.35;;;512.40;2380.80;;;;;;5034241;28;20017;-82
2021/06/10 23:49:24;;;;;;;7.50;4.40;;;512.40;2380.80;;;;;;5033906;28;20021;-82
2021/06/10 23:51:52;;;;;;;7.45;4.72;;;512.40;2380.80;;;;;;5034135;28;20028;-83
2021/06/10 23:54:18;;;;;;;7.00;4.10;;;512.40;2380.80;;;;;;5034002;28;20028;-83
2021/06/10 23:56:43;;;;;;;7.38;4.43;;;512.10;2380.80;;;;;;5033793;28;20029;-83
2021/06/10 23:59:09;;;;;;;9.75;4.47;;;512.00;2380.80;;;;;;5033837;28;20036;-83
